Timeline UpdatesTrip UpdatesNews PostsPvt Posts♥♥Travel TipsAdmin PostsConv PostsFollowed PostsChat RequestsBlog PostsPNR Posts

Disclaimer
Search
 
 
Fri Oct 31, 2014 13:59:42 ISTHomeTrainsΣChainsAtlasPNRForumGalleryNewsFAQTripsMembersLoginFeedback
No Recent News for this Train
Other Trains in the News **new
Latest...
.
Sat Sep 13, 2014 (05:37PM)
⇐ Return Journey: Train# 58117

58118/Gondia-Jharsuguda Passenger (UnReserved)

Time-Table HAS CHANGED.
Sep 13 2014 (5:37PM)
Change Departure Station:
Change Arrival Station:
Post a Train Travel TipPost a Train Travel Tip **new
Post a Comment/Question/Picture/VideoPost a Comment/Question/Picture/Video
Pantry/Catering
???
RSA - Rake Sharing
Rake/Coach Composition
Loco
BIA WAM-4
News    PNR    Forum    Time-Table    Availability    Fare Chart    Map    Arr/Dep History    Trips    Gallery    ΣChains    X/O    Timeline    
Travel Time: 3h 5m    15 halts    Distance: 135 km    Avg Speed: 43 km/hr
Type: Passenger
Zone: SER/South Eastern
Departs @ 05:05 (Avg 1m late)
Platform# ???
SMTWTFS
Gondia Junction/G 
Arrives @ 08:10 (Avg 9m late)
Platform# ???
SMTWTFS
Durg Junction/DURG 

15 halts. 15 intermediate Stations between Gondia Junction and Durg Junction

Show ALL intermediate Stations  Show Old Time-Table

#TrkCodeStation NameX/OArrivesAvgDepartsAvgHaltPFDay#KmSpeedElevZoneAddress
1/==/GGondia Junction (7)»  -05:00 05:05+1--10.079316mSECRGondia 441601, Maharashtra
2/==/GDMGudma (2)  05:10 05:14+805:11 05:15+91m--111.965323mSECRGondia, Maharashtra
3/==/AGNAmgaon (2)X  05:20 05:25+905:22 05:27+92m--122.873317mSECRGondia, Maharashtra
4/==/DNLDhanoli (2)X  05:28 05:33-05:29 05:34-1m--130.175310mSECRAmgaon, Maharashtra
5/==/SKSSalekasa (2)X  05:36 05:40+1105:38 05:42+142m--137.553312mSECRRajnandgaon, Chhattisgarh
6/==/DKSDarekasa (2)  05:51 05:55+1505:52 05:56+161m--149.166381mSECRRajnandgaon, Chhattisgarh
7/==/BTLBortalao (2)  05:59 06:03+1606:00 06:04+171m--156.853409mSECRRajnandgaon, Chhattisgarh
8/==/PJBPaniajob (2)  06:12 06:14+1506:13 06:15+161m--165.646363mSECRRajnandgaon, Chhattisgarh
9/==/DGGDongargarh (2)  06:25+1206:35+1110m--173.365 SECRDongargarh, Chhattisgarh
10/==/JTRJatkanhar  06:41+1506:42+171m--179.840330mSECRRajnandgaon, Chhattisgarh
11/==/MUAMusraX  06:52+1406:54+132m--186.559323mSECRRajnandgaon, Chhattisgarh
12/==/BAKLBakal  07:02+1007:03+111m--194.353318mSECRRajnandgaon, Chhattisgarh
13/==/RJNRaj Nandgaon (3)X  07:15+1207:20+115m--1104.859313mSECRRajnandgaon, Chhattisgarh
14/==/PMSParmalkasaX  07:28+607:29+71m--1112.770300mSECRRajnandgaon, Chhattisgarh
15/==/MUPMurhiparO  07:35+1207:37+122m--1119.864319mSECRRajnandgaon, Chhattisgarh
16/==/RSMRasmaraXO  07:44+907:45+91m--1127.219292mSECRRasmada, Chhattisgarh
17/==/DURGDurg Junction (6)•  08:10+908:15+115m--1135.339299mSECRPh: 91-788-2322059, Chhattisgarh
18/==/BQRBhilai Nagar (2)X  08:22+2308:24+242m--1139.853298mSECRBhilai, Chhattisgarh
19/==/BPHBBhilai Power House (3)X  08:29+008:31+02m--1144.256312mSECRBhilai, Chhattisgarh
20/==/BIABhilai (2)  08:36+1908:38+192m--1148.956309mSECRBhilai, Chhattisgarh
21/==/ new halt!!  08:42-08:44-2m--1152.6560m???
22/==/ new halt!!  08:47-08:48-1m--1155.4460m???
23/==/KMIKumhari (2)X  08:54+2408:56+242m--1160.062287mSECRKumhari, Chhattisgarh
24/==/SZBSarona Cabin (2)  09:02+2709:04+292m--1166.248282mSECRRaipur, Chhattisgarh
25/==/SRWNSaraswatinagar (2)X  09:09-09:11-2m--1170.115291mSECRRaipur, Chhattisgarh
26/==/RRaipur Junction (6)  09:20+1109:27+127m--1172.431297mSECRRaipur, Chhattisgarh
27/==/WRCWRS Colony PH  09:32-09:33-1m--1175.036286mSECRRaipur, Chhattisgarh
28/==/URKUrkuraX  09:39 09:38+3009:41 09:40+302m--1178.086275mSECRRaipur, Chhattisgarh
29/==/MDHMandharX  09:47 09:46+3109:49 09:48+322m--1186.664281mSECRDonde Kalan, Chhattisgarh
30/==/SLHSiliariX  09:58 09:57+3410:00 09:59+362m--1196.154280mSECRBanjari Rd, Chhattisgarh
31/==/TLDTilda (3)  10:17 10:15+4310:19 10:17+422m--1210.649 SECRBanjari Rd, Chhattisgarh
32/==/HNHathbandhX  10:32 10:30+3910:34 10:32+452m--1221.384283mSECRRaipur, Chhattisgarh
33/==/BYTBhatapara (4)XO  10:45 10:43+3610:47 10:45+372m--1236.688270mSECRBanjari Road, Chhattisgarh
34/==/NPINipaniaX  10:58 10:55+5711:00 10:57+572m--1251.441259mSECRNational Highway 200, Chhattisgarh
35/==/DGSDagori  11:13 11:09+5511:15 11:11+572m--1259.677254mSECRCollege Road, Chhattisgarh
36/==/BYLBelhaX  11:21 11:17+5411:23 11:19+552m--1267.370269mSECRCollege Road, Chhattisgarh
37/==/CHBTChakarbhatha  11:28 11:24-11:30 11:26-2m--1273.146285mSECRBilaspur, Chhattisgarh
38/==/DPHDadhapara (3)X  11:35 11:30+1:0611:40 11:35+1:075m--1276.24272mSECRBilaspur, Chhattisgarh
39/==/BSPBilaspur Junction (8)  13:15+613:45+730m21282.849271mSECRBilaspur, Chhattisgarh
40/==/GTWGatora  13:54 13:53+713:57 13:55+63 2m--1289.357268mSECRBilaspur, Chhattisgarh
41/==/JRMGJairamnagar  14:05 14:03+814:07 14:05+82m--1297.067272mSECRNational Highway 200, Chhattisgarh
42/==/KTSHKotmi Sonar Halt  14:13 14:11-14:15 14:13-2m--1303.764266mSECRKotmisunar, Chhattisgarh
43/==/AKTAkaltara (4)X  14:21 14:19+1814:23 14:21+182m--1310.158284mSECRDist. Janjgir Champa, Chhattisgarh
44/==/KPNAKapan (1)  14:30 14:29-14:32 14:31-2m11317.848263mSECRNational Highway 200, Chhattisgarh
45/==/NIANailaX  14:45 14:40+1514:50 14:45+145m--1325.043273mSECRJanjgir, Chhattisgarh
46/==/CPHChampa Junction (3)  15:05 15:00+815:20 15:10+1315 10m--1335.990264mSECRNational Highway 200 (07819-245767), Chhattisgarh
47/==/SGRDSaragaon RoadX  15:28 15:16-15:30 15:18-2m--1344.865254mSECRNational Highway 200, Chhattisgarh
48/==/BUABaradwarX  15:38 15:24+2315:40 15:26+222m--1351.471 SECRJanjgir-Champa, Chhattisgarh
49/==/JDDAJetha  15:46 15:32-15:48 15:34-2m--1358.578244mSECRNational Highway 200, Chhattisgarh
50/==/SKTSakti (4)X  16:15 15:40+1816:30 15:45+2415 5m--1366.256237mSECRJanjgir-Champa, Chhattisgarh
51/==/JDIJharradihX  16:38 15:56+2816:40 15:58+352m--1376.431247mSECRRaigarh, Chhattisgarh
52/==/KHSKharsiaXO  16:58 16:08+2317:03 16:10+235 2m--1381.651 SECRNational Highway 200, Chhattisgarh
53/==/ROBRobertsonX  17:10 16:20+2817:12 16:22+332m--1390.177239mSECRRaigarh, Chhattisgarh
54/==/BEFBhupdeopur  17:20 16:29+3817:22 16:31+382m--1399.279243mSECRRaigarh, Chhattisgarh
55/==/KDTRKirodimalnagar (5)X  17:29 16:38+4317:31 16:40+482m--1408.429240mSECRRaigarh, Chhattisgarh
56/==/RIGRaigarh (3)  17:45 16:55+2117:55 17:05+2110m--1415.697220mSECRRaigarh, Chhattisgarh
57/==/KRLKotarlia  18:03 17:11+5318:05 17:13+532m--1425.373229mSECRRaigarh, Chhattisgarh
58/==/JMGJamga  18:10 17:20+5418:12 17:22+1:032m--1433.872233mSECRJamga Station, Chhattisgarh
59/==/DAODaghora  18:28 17:32+4418:30 17:34+512m--1445.856269mSECRRaigarh, Chhattisgarh
60/==/HGRHimgirX  18:38 17:42+1:0118:40 17:44+1:122m--1453.281275mSECRNational Highway 200, Chhattisgarh
61/==/BPHBelpahar (2)  18:50 17:54+5418:52 17:56+1:032m--1466.741235mSECRBelpahar, Odisha
62/==/BRJNBrajrajnagar  19:10 18:09+1:0019:15 18:11+1:005 2m--1475.623212mSECRBrajrajnagar, Odisha
63/==/IBIb  19:23 18:18+5919:25 18:20+1:082m--1478.214207mSECRJharsuguda, Odisha
64/==/JSGJharsuguda Junction (5)  20:15 19:00+23---1487.2-236mSERJharsuguda, Odisha
Scroll to Top
Scroll to Bottom